Time;durP1;ratioP1;P1;durP2;ratioP2;P2;SDS_P1;SDS_P2;PMS_P1;PMS_P2;Temp;Humidity;BMP_temperature;BMP_pressure;BME280_temperature;BME280_humidity;BME280_pressure;Samples;Min_cycle;Max_cycle;Signal;HPM_P1;HPM_P2
2023/01/14 00:00:24;;;;;;;12.88;2.13;;;7.30;99.90;;;;;;5053314;28;20071;-67
2023/01/14 00:02:49;;;;;;;11.25;2.10;;;7.30;99.90;;;;;;5070545;28;20597;-67
2023/01/14 00:05:15;;;;;;;17.27;1.98;;;7.30;99.90;;;;;;5068594;28;20079;-65
2023/01/14 00:07:41;;;;;;;15.23;2.75;;;7.30;99.90;;;;;;5064365;28;20040;-66
2023/01/14 00:10:07;;;;;;;9.25;2.38;;;7.30;99.90;;;;;;5068771;28;20040;-67
2023/01/14 00:12:33;;;;;;;16.23;2.92;;;7.30;99.90;;;;;;5069846;28;20483;-68
2023/01/14 00:14:59;;;;;;;8.48;2.00;;;7.30;99.90;;;;;;5053522;28;20047;-67
2023/01/14 00:17:24;;;;;;;16.13;2.47;;;7.30;99.90;;;;;;5072036;28;20052;-66
2023/01/14 00:19:50;;;;;;;13.63;2.60;;;7.40;99.90;;;;;;5070864;28;20032;-68
2023/01/14 00:22:16;;;;;;;17.45;2.25;;;7.30;99.90;;;;;;5072133;28;20037;-66
2023/01/14 00:24:41;;;;;;;17.50;2.05;;;7.30;99.90;;;;;;5068312;28;20036;-68
2023/01/14 00:27:07;;;;;;;15.40;2.40;;;7.30;99.90;;;;;;5049524;28;20049;-67
2023/01/14 00:29:34;;;;;;;11.50;2.08;;;7.30;99.90;;;;;;5071865;28;20036;-68
2023/01/14 00:32:05;;;;;;;16.73;2.30;;;7.30;99.90;;;;;;5070382;28;20033;-66
2023/01/14 00:34:32;;;;;;;14.57;2.10;;;7.20;99.90;;;;;;5069532;28;20045;-66
2023/01/14 00:36:58;;;;;;;16.85;2.20;;;7.20;99.90;;;;;;5071272;28;20115;-68
2023/01/14 00:39:24;;;;;;;11.18;2.17;;;7.10;99.90;;;;;;5069978;28;20476;-67
2023/01/14 00:41:51;;;;;;;17.35;2.88;;;7.10;99.90;;;;;;5070949;28;20055;-66
2023/01/14 00:44:19;;;;;;;16.45;2.47;;;7.00;99.90;;;;;;5062919;28;20032;-68
2023/01/14 00:46:45;;;;;;;15.73;2.67;;;7.00;99.90;;;;;;5070969;28;20093;-67
2023/01/14 00:49:16;;;;;;;19.63;2.60;;;7.10;99.90;;;;;;5070880;28;20049;-66
2023/01/14 00:51:42;;;;;;;14.75;2.67;;;7.10;99.90;;;;;;5070927;28;20040;-68
2023/01/14 00:54:08;;;;;;;12.23;2.53;;;7.10;99.90;;;;;;5051893;28;20086;-64
2023/01/14 00:56:33;;;;;;;15.10;2.35;;;7.10;99.90;;;;;;5070834;28;20114;-66
2023/01/14 00:58:59;;;;;;;23.95;3.15;;;7.20;99.90;;;;;;5070879;28;20079;-67
2023/01/14 01:01:24;;;;;;;14.40;2.92;;;7.20;99.90;;;;;;5069621;28;20070;-69
2023/01/14 01:03:53;;;;;;;19.60;2.78;;;7.20;99.90;;;;;;5069365;28;20513;-70
2023/01/14 01:06:21;;;;;;;16.05;2.10;;;7.20;99.90;;;;;;5065383;28;20049;-70
2023/01/14 01:08:48;;;;;;;20.27;3.17;;;7.20;99.90;;;;;;5070491;28;20479;-66
2023/01/14 01:11:15;;;;;;;21.77;2.55;;;7.20;99.90;;;;;;5068206;28;20037;-67
2023/01/14 01:13:41;;;;;;;17.33;2.45;;;7.10;99.90;;;;;;5071195;28;20495;-67
2023/01/14 01:16:14;;;;;;;16.35;2.50;;;7.10;99.90;;;;;;5068051;28;20084;-67
2023/01/14 01:18:40;;;;;;;22.85;3.38;;;7.10;99.90;;;;;;5070846;28;20113;-67
2023/01/14 01:21:14;;;;;;;16.35;2.67;;;7.20;99.90;;;;;;5070038;28;20499;-67
2023/01/14 01:23:41;;;;;;;16.60;2.83;;;7.20;99.90;;;;;;5070912;28;20381;-68
2023/01/14 01:26:10;;;;;;;12.48;2.10;;;7.20;99.90;;;;;;5066032;28;20075;-66
2023/01/14 01:28:36;;;;;;;13.27;2.95;;;7.20;99.90;;;;;;5070151;28;20501;-67
2023/01/14 01:31:05;;;;;;;18.80;2.25;;;7.20;99.90;;;;;;5066172;28;20033;-69
2023/01/14 01:33:31;;;;;;;14.07;2.33;;;7.20;99.90;;;;;;5070517;28;20050;-64
2023/01/14 01:36:06;;;;;;;12.88;2.30;;;7.20;99.90;;;;;;5068033;28;20566;-68
2023/01/14 01:38:32;;;;;;;17.52;3.03;;;7.20;99.90;;;;;;5064154;28;20065;-67
2023/01/14 01:40:59;;;;;;;20.85;3.20;;;7.20;99.90;;;;;;5069461;28;20495;-67
2023/01/14 01:43:28;;;;;;;17.55;3.22;;;7.20;99.90;;;;;;5069513;28;20407;-66
2023/01/14 01:45:56;;;;;;;18.27;3.20;;;7.20;99.90;;;;;;5053698;28;20049;-68
2023/01/14 01:48:33;;;;;;;17.77;2.97;;;7.20;99.90;;;;;;5065868;28;20443;-67
2023/01/14 01:51:05;;;;;;;19.13;3.10;;;7.20;99.90;;;;;;5053833;28;20087;-67
2023/01/14 01:53:34;;;;;;;19.73;2.75;;;7.20;99.90;;;;;;5069332;28;20052;-65
2023/01/14 01:56:02;;;;;;;17.75;3.63;;;7.30;99.90;;;;;;5071121;28;20040;-67
2023/01/14 01:58:29;;;;;;;14.82;2.45;;;7.30;99.90;;;;;;5067185;28;20040;-66
2023/01/14 02:00:54;;;;;;;15.90;2.38;;;7.30;99.90;;;;;;5064678;28;20044;-67
2023/01/14 02:03:27;;;;;;;21.15;3.58;;;7.30;99.90;;;;;;5068988;28;20063;-67
2023/01/14 02:05:53;;;;;;;15.63;2.30;;;7.30;99.90;;;;;;5066176;28;20107;-67
2023/01/14 02:08:19;;;;;;;18.98;2.58;;;7.40;99.90;;;;;;5066551;28;20087;-66
2023/01/14 02:11:13;;;;;;;16.27;2.80;;;7.30;99.90;;;;;;5069972;28;20105;-67
2023/01/14 02:14:02;;;;;;;19.85;3.08;;;7.40;99.90;;;;;;5052771;28;20461;-65
2023/01/14 02:16:50;;;;;;;13.40;2.30;;;7.40;99.90;;;;;;5069200;28;21027;-67
2023/01/14 02:19:40;;;;;;;15.63;2.33;;;7.40;99.90;;;;;;5056370;28;20047;-66
2023/01/14 02:22:30;;;;;;;15.23;2.10;;;7.40;99.90;;;;;;5051224;28;20052;-67
2023/01/14 02:25:17;;;;;;;12.48;2.25;;;7.40;99.90;;;;;;5068699;28;20040;-69
2023/01/14 02:27:52;;;;;;;20.13;3.15;;;7.40;99.90;;;;;;5069083;28;22164;-65
2023/01/14 02:30:31;;;;;;;18.13;2.90;;;7.40;99.90;;;;;;5066066;28;20048;-65
2023/01/14 02:33:32;;;;;;;17.50;2.65;;;7.40;99.90;;;;;;5067351;28;20102;-67
2023/01/14 02:36:04;;;;;;;14.70;2.10;;;7.30;99.90;;;;;;5048262;28;20119;-67
2023/01/14 02:39:06;;;;;;;13.18;2.30;;;7.20;99.90;;;;;;5067960;28;20044;-68
2023/01/14 02:44:39;;;;;;;16.38;3.95;;;7.20;99.90;;;;;;5067137;28;20087;-67
2023/01/14 02:47:14;;;;;;;14.05;2.50;;;7.10;99.90;;;;;;5069161;28;20037;-65
2023/01/14 02:49:43;;;;;;;17.45;2.40;;;7.00;99.90;;;;;;5066793;28;20040;-67
2023/01/14 02:52:11;;;;;;;18.05;2.45;;;6.90;99.90;;;;;;5069224;28;20051;-67
2023/01/14 02:54:37;;;;;;;20.10;2.72;;;6.90;99.90;;;;;;5066716;28;20556;-67
2023/01/14 02:57:19;;;;;;;18.02;2.40;;;6.80;99.90;;;;;;5064687;28;20041;-65
2023/01/14 03:00:01;;;;;;;18.15;2.95;;;6.70;99.90;;;;;;5063525;28;20090;-66
2023/01/14 03:02:43;;;;;;;17.97;2.83;;;6.60;99.90;;;;;;5069796;28;20041;-67
2023/01/14 03:05:46;;;;;;;16.35;2.90;;;6.50;99.90;;;;;;5063236;28;20128;-66
2023/01/14 03:08:22;;;;;;;;;;;6.50;99.90;;;;;;5064097;28;20036;-67
2023/01/14 03:10:58;;;;;;;16.10;2.05;;;6.40;99.90;;;;;;5060479;28;20278;-66
2023/01/14 03:13:32;;;;;;;12.30;2.03;;;6.30;99.90;;;;;;5068405;28;20044;-68
2023/01/14 03:16:24;;;;;;;14.35;2.05;;;6.20;99.90;;;;;;5068164;28;20049;-67
2023/01/14 03:19:01;;;;;;;23.33;2.60;;;6.20;99.90;;;;;;5068214;28;20541;-67
2023/01/14 03:21:39;;;;;;;11.15;2.78;;;6.10;99.90;;;;;;5060665;28;20483;-67
2023/01/14 03:24:13;;;;;;;12.40;2.28;;;6.10;99.90;;;;;;5068678;28;20048;-67
2023/01/14 03:26:45;;;;;;;14.65;2.40;;;6.00;99.90;;;;;;5067676;28;20081;-67
2023/01/14 03:29:15;;;;;;;15.98;2.22;;;6.00;99.90;;;;;;5070190;28;20047;-67
2023/01/14 03:31:46;;;;;;;12.02;2.10;;;6.00;99.90;;;;;;5066439;28;20036;-67
2023/01/14 03:34:16;;;;;;;14.43;2.00;;;5.90;99.90;;;;;;5068524;28;20045;-67
2023/01/14 03:36:44;;;;;;;13.90;2.33;;;6.00;99.90;;;;;;5068364;28;20521;-67
2023/01/14 03:39:19;;;;;;;16.35;2.50;;;6.00;99.90;;;;;;5051367;28;20119;-67
2023/01/14 03:44:48;;;;;;;14.52;2.63;;;6.00;99.90;;;;;;5066337;28;20056;-69
2023/01/14 03:47:13;;;;;;;16.95;3.42;;;5.90;99.90;;;;;;5068709;28;20055;-65
2023/01/14 03:49:39;;;;;;;18.55;2.40;;;5.90;99.90;;;;;;5066875;28;20035;-66
2023/01/14 03:52:18;;;;;;;16.00;2.40;;;5.90;99.90;;;;;;5067695;28;20119;-66
2023/01/14 03:54:55;;;;;;;11.68;2.15;;;5.90;99.90;;;;;;5061474;28;20071;-66
2023/01/14 03:57:43;;;;;;;13.15;2.47;;;5.90;99.90;;;;;;5068456;28;20033;-66
2023/01/14 04:00:16;;;;;;;14.73;2.40;;;5.80;99.90;;;;;;5066710;28;20111;-68
2023/01/14 04:02:45;;;;;;;10.52;1.80;;;5.80;99.90;;;;;;5068099;28;20044;-64
2023/01/14 04:05:11;;;;;;;15.40;2.33;;;5.80;99.90;;;;;;5065871;28;20055;-69
2023/01/14 04:07:36;;;;;;;14.15;2.28;;;5.80;99.90;;;;;;5068183;28;20044;-66
2023/01/14 04:10:03;;;;;;;22.73;2.58;;;5.80;99.90;;;;;;5061927;28;20047;-66
2023/01/14 04:12:28;;;;;;;15.35;2.00;;;5.80;99.90;;;;;;5068305;28;20036;-67
2023/01/14 04:17:38;;;;;;;22.80;3.85;;;5.80;99.90;;;;;;5062850;28;20070;-67
2023/01/14 04:20:05;;;;;;;15.18;2.30;;;5.80;99.90;;;;;;5068824;28;20127;-67
2023/01/14 04:22:31;;;;;;;15.02;2.53;;;5.80;99.90;;;;;;5068926;28;20091;-67
2023/01/14 04:24:57;;;;;;;20.15;2.65;;;5.80;99.90;;;;;;5068355;28;20101;-66
2023/01/14 04:27:22;;;;;;;14.73;2.50;;;5.80;99.90;;;;;;5070391;28;20086;-64
2023/01/14 04:29:48;;;;;;;17.08;2.65;;;5.80;99.90;;;;;;5072070;28;20036;-68
2023/01/14 04:32:13;;;;;;;17.50;2.72;;;5.80;99.90;;;;;;5069626;28;20033;-69
2023/01/14 04:34:39;;;;;;;18.05;4.05;;;5.80;99.90;;;;;;5069055;28;20140;-67
2023/01/14 04:37:07;;;;;;;14.80;2.80;;;5.80;99.90;;;;;;5069215;28;20041;-66
2023/01/14 04:39:34;;;;;;;17.30;2.95;;;5.70;99.90;;;;;;5071253;28;20053;-67
2023/01/14 04:44:46;;;;;;;18.55;3.10;;;5.70;99.90;;;;;;5070898;28;20131;-65
2023/01/14 04:47:12;;;;;;;16.25;2.38;;;5.70;99.90;;;;;;5051493;28;20072;-66
2023/01/14 04:49:38;;;;;;;18.70;2.60;;;5.70;99.90;;;;;;5071565;28;20083;-68
2023/01/14 04:52:04;;;;;;;24.70;3.50;;;5.70;99.90;;;;;;5070377;28;20040;-67
2023/01/14 04:54:29;;;;;;;17.08;3.00;;;5.70;99.90;;;;;;5071523;28;20068;-68
2023/01/14 04:56:55;;;;;;;14.55;3.15;;;5.70;99.90;;;;;;5063299;28;20037;-66
2023/01/14 04:59:20;;;;;;;14.43;2.50;;;5.70;99.90;;;;;;5070946;28;20443;-66
2023/01/14 05:01:46;;;;;;;15.93;2.97;;;5.70;99.90;;;;;;5070602;28;20055;-66
2023/01/14 05:04:12;;;;;;;24.77;2.95;;;5.70;99.90;;;;;;5069898;28;20032;-66
2023/01/14 05:06:37;;;;;;;16.70;2.50;;;5.70;99.90;;;;;;5070973;28;20043;-70
2023/01/14 05:09:03;;;;;;;18.33;3.38;;;5.70;99.90;;;;;;5064339;28;20429;-66
2023/01/14 05:11:29;;;;;;;19.73;3.38;;;5.70;99.90;;;;;;5071136;28;20046;-66
2023/01/14 05:13:54;;;;;;;21.40;3.92;;;5.70;99.90;;;;;;5070407;28;20162;-69
2023/01/14 05:16:20;;;;;;;18.63;3.10;;;5.70;99.90;;;;;;5050746;28;20080;-67
2023/01/14 05:18:46;;;;;;;20.38;3.28;;;5.70;99.90;;;;;;5065979;28;20051;-66
2023/01/14 05:21:12;;;;;;;18.45;3.70;;;5.70;99.90;;;;;;5070755;28;20422;-65
2023/01/14 05:23:38;;;;;;;22.63;3.58;;;5.70;99.90;;;;;;5053084;28;20072;-66
2023/01/14 05:26:04;;;;;;;26.63;4.30;;;5.70;99.90;;;;;;5087028;28;20822;-66
2023/01/14 05:28:30;;;;;;;17.80;3.20;;;5.70;99.90;;;;;;5068438;28;20043;-68
2023/01/14 05:30:55;;;;;;;21.65;3.92;;;5.70;99.90;;;;;;5053424;28;20412;-67
2023/01/14 05:33:21;;;;;;;30.23;4.50;;;5.70;99.90;;;;;;5052845;28;20037;-65
2023/01/14 05:35:47;;;;;;;22.00;3.60;;;5.70;99.90;;;;;;5068462;28;20090;-67
2023/01/14 05:38:12;;;;;;;18.55;3.50;;;5.70;99.90;;;;;;5084850;28;20040;-68
2023/01/14 05:40:38;;;;;;;15.98;3.88;;;5.70;99.90;;;;;;5065213;28;20411;-66
2023/01/14 05:45:48;;;;;;;22.75;4.43;;;5.60;99.90;;;;;;5066905;28;20064;-66
2023/01/14 05:48:22;;;;;;;27.30;4.55;;;5.60;99.90;;;;;;5049388;28;20040;-68
2023/01/14 05:50:53;;;;;;;22.55;3.92;;;5.60;99.90;;;;;;5068500;28;20051;-65
2023/01/14 05:53:20;;;;;;;22.38;3.50;;;5.70;99.90;;;;;;5070415;28;20075;-68
2023/01/14 05:55:46;;;;;;;24.77;4.50;;;5.60;99.90;;;;;;5068001;28;20056;-69
2023/01/14 05:58:12;;;;;;;21.40;4.10;;;5.60;99.90;;;;;;5070096;28;20131;-63
2023/01/14 06:06:23;;;;;;;28.80;4.68;;;5.60;99.90;;;;;;5053690;28;20114;-67
2023/01/14 06:09:01;;;;;;;24.73;4.47;;;5.60;99.90;;;;;;5061631;28;20144;-66
2023/01/14 06:11:28;;;;;;;20.83;5.28;;;5.60;99.90;;;;;;5069610;28;20519;-65
2023/01/14 06:13:57;;;;;;;34.47;5.53;;;5.60;99.90;;;;;;5068795;28;20037;-66
2023/01/14 06:16:27;;;;;;;22.00;4.28;;;5.60;99.90;;;;;;5067097;28;20041;-67
2023/01/14 06:18:54;;;;;;;22.27;5.30;;;5.60;99.90;;;;;;5069255;28;20062;-66
2023/01/14 06:21:23;;;;;;;20.30;4.63;;;5.60;99.90;;;;;;5068920;28;20040;-68
2023/01/14 06:23:49;;;;;;;25.90;4.45;;;5.60;99.90;;;;;;5068953;28;20044;-68
2023/01/14 06:26:17;;;;;;;23.40;3.75;;;5.60;99.90;;;;;;5067120;28;20051;-67
2023/01/14 06:28:44;;;;;;;29.20;5.57;;;5.60;99.90;;;;;;5068027;28;20082;-66
2023/01/14 06:31:14;;;;;;;22.13;4.28;;;5.60;99.90;;;;;;5068816;28;20507;-68
2023/01/14 06:33:40;;;;;;;26.83;4.20;;;5.60;99.90;;;;;;5068166;28;20047;-66
2023/01/14 06:36:07;;;;;;;23.52;3.92;;;5.60;99.90;;;;;;5069582;28;20475;-67
2023/01/14 06:38:33;;;;;;;25.83;4.40;;;5.60;99.90;;;;;;5066849;28;20387;-70
2023/01/14 06:41:00;;;;;;;25.25;4.68;;;5.60;99.90;;;;;;5066894;28;20044;-67
2023/01/14 06:43:27;;;;;;;26.73;4.65;;;5.60;99.90;;;;;;5069044;28;20123;-67
2023/01/14 06:45:57;;;;;;;29.90;6.05;;;5.70;99.90;;;;;;5064722;28;20056;-66
2023/01/14 06:48:24;;;;;;;22.60;4.15;;;5.70;99.90;;;;;;5061089;28;21512;-67
2023/01/14 06:50:49;;;;;;;30.50;5.45;;;5.70;99.90;;;;;;5068319;28;20089;-67
2023/01/14 06:53:15;;;;;;;23.75;4.70;;;5.70;99.90;;;;;;5069039;28;20528;-69
2023/01/14 06:55:41;;;;;;;28.65;5.20;;;5.70;99.90;;;;;;5068221;28;20041;-66
2023/01/14 06:58:07;;;;;;;26.48;4.90;;;5.70;99.90;;;;;;5065589;28;20485;-66
2023/01/14 07:00:32;;;;;;;30.23;4.97;;;5.70;99.90;;;;;;5068394;28;20502;-66
2023/01/14 07:02:58;;;;;;;33.17;5.50;;;5.70;99.90;;;;;;5068581;28;20052;-70
2023/01/14 07:05:24;;;;;;;27.50;5.35;;;5.70;99.90;;;;;;5062863;28;20139;-63
2023/01/14 07:07:49;;;;;;;26.58;4.88;;;5.70;99.90;;;;;;5068996;28;20036;-65
2023/01/14 07:10:16;;;;;;;26.85;4.85;;;5.80;99.90;;;;;;5063115;28;20483;-65
2023/01/14 07:12:50;;;;;;;25.60;4.50;;;5.80;99.90;;;;;;5066356;28;20059;-66
2023/01/14 07:15:18;;;;;;;25.27;5.13;;;5.80;99.90;;;;;;5065093;28;20040;-65
2023/01/14 07:17:45;;;;;;;23.77;4.22;;;5.80;99.90;;;;;;5068872;28;20032;-66
2023/01/14 07:20:12;;;;;;;28.25;5.35;;;5.80;99.90;;;;;;5049548;28;20106;-67
2023/01/14 07:22:37;;;;;;;31.63;5.45;;;5.80;99.90;;;;;;5068871;28;20502;-67
2023/01/14 07:25:05;;;;;;;26.77;4.35;;;5.80;99.90;;;;;;5067049;28;20041;-67
2023/01/14 07:27:31;;;;;;;28.60;4.32;;;5.80;99.90;;;;;;5067795;28;20386;-65
2023/01/14 07:29:58;;;;;;;26.98;5.65;;;5.80;99.90;;;;;;5064588;28;20045;-65
2023/01/14 07:32:24;;;;;;;27.27;4.57;;;5.90;99.90;;;;;;5051827;28;20272;-67
2023/01/14 07:34:49;;;;;;;25.05;5.00;;;5.90;99.90;;;;;;5065726;28;20048;-67
2023/01/14 07:37:15;;;;;;;29.73;4.97;;;5.90;99.90;;;;;;5068184;28;20334;-66
2023/01/14 07:39:41;;;;;;;30.38;4.25;;;5.90;99.90;;;;;;5068640;28;20430;-65
2023/01/14 07:42:07;;;;;;;26.60;5.07;;;5.90;99.90;;;;;;5066907;28;20048;-69
2023/01/14 07:44:32;;;;;;;26.77;4.30;;;5.90;99.90;;;;;;5067931;28;20036;-67
2023/01/14 07:46:58;;;;;;;26.77;5.25;;;5.90;99.90;;;;;;5068802;28;20040;-66
2023/01/14 07:49:24;;;;;;;23.88;4.30;;;6.00;99.90;;;;;;5067833;28;20065;-67
2023/01/14 07:51:51;;;;;;;24.00;4.40;;;6.00;99.90;;;;;;5066305;28;20040;-67
2023/01/14 07:54:17;;;;;;;22.13;4.20;;;6.00;99.90;;;;;;5066474;28;20063;-65
2023/01/14 07:56:44;;;;;;;28.20;4.80;;;6.00;99.90;;;;;;5073655;28;20462;-64
2023/01/14 07:59:10;;;;;;;27.30;4.53;;;6.00;99.90;;;;;;5064790;28;20048;-67
2023/01/14 08:01:36;;;;;;;17.35;3.60;;;6.00;99.90;;;;;;5068619;28;20086;-68
2023/01/14 08:04:02;;;;;;;27.92;5.55;;;6.00;99.90;;;;;;5067003;28;20178;-67
2023/01/14 08:06:28;;;;;;;18.20;3.47;;;6.00;99.90;;;;;;5072175;28;20571;-65
2023/01/14 08:08:54;;;;;;;15.65;3.28;;;6.00;99.90;;;;;;5072310;28;20040;-67
2023/01/14 08:11:20;;;;;;;25.42;4.60;;;6.00;99.90;;;;;;5070576;28;20495;-65
2023/01/14 08:13:48;;;;;;;24.05;3.63;;;6.00;99.90;;;;;;5067774;28;20045;-66
2023/01/14 08:16:15;;;;;;;23.23;3.67;;;6.00;99.90;;;;;;5068004;28;20127;-66
2023/01/14 08:18:40;;;;;;;22.05;3.60;;;6.00;99.90;;;;;;5066563;28;20136;-66
2023/01/14 08:21:08;;;;;;;27.52;3.83;;;6.00;99.90;;;;;;5072083;28;20131;-63
2023/01/14 08:23:35;;;;;;;21.88;3.90;;;6.00;99.90;;;;;;5053131;28;20487;-67
2023/01/14 08:26:05;;;;;;;20.70;3.88;;;6.00;99.90;;;;;;5071166;28;20068;-65
2023/01/14 08:28:32;;;;;;;22.40;3.80;;;6.00;99.90;;;;;;5067185;28;20058;-66
2023/01/14 08:31:15;;;;;;;24.48;3.08;;;6.00;99.90;;;;;;5069661;28;20078;-65
2023/01/14 08:33:43;;;;;;;18.60;3.03;;;6.00;99.90;;;;;;5070622;28;20063;-66
2023/01/14 08:36:17;;;;;;;21.15;4.15;;;6.10;99.90;;;;;;5071480;28;20149;-65
2023/01/14 08:38:44;;;;;;;21.00;3.45;;;6.00;99.90;;;;;;5066364;28;20036;-66
2023/01/14 08:41:13;;;;;;;22.75;3.78;;;6.00;99.90;;;;;;5069625;28;20036;-66
2023/01/14 08:43:39;;;;;;;24.95;3.90;;;6.10;99.90;;;;;;5070261;28;20041;-65
2023/01/14 08:46:07;;;;;;;21.23;4.15;;;6.10;99.90;;;;;;5071792;28;20438;-67
2023/01/14 08:48:33;;;;;;;17.80;4.00;;;6.10;99.90;;;;;;5069025;28;20044;-67
2023/01/14 08:51:07;;;;;;;20.90;3.58;;;6.10;99.90;;;;;;5068585;28;20025;-68
2023/01/14 08:53:37;;;;;;;21.10;3.42;;;6.10;99.90;;;;;;5069672;28;20125;-65
2023/01/14 08:56:05;;;;;;;19.38;3.22;;;6.10;99.90;;;;;;5070473;28;20037;-66
2023/01/14 08:58:31;;;;;;;25.88;3.72;;;6.10;99.90;;;;;;5052154;28;20544;-67
2023/01/14 09:00:59;;;;;;;23.75;3.03;;;6.10;99.90;;;;;;5066875;28;20510;-67
2023/01/14 09:03:27;;;;;;;20.27;4.07;;;6.10;99.90;;;;;;5071147;28;20426;-66
2023/01/14 09:06:01;;;;;;;23.15;3.05;;;6.10;99.90;;;;;;5063246;28;20056;-65
2023/01/14 09:19:30;;;;;;;16.63;2.97;;;6.10;99.90;;;;;;5068235;28;20075;-66
2023/01/14 09:21:56;;;;;;;17.27;2.97;;;6.10;99.90;;;;;;5050683;28;20535;-66
2023/01/14 09:24:22;;;;;;;15.10;3.65;;;6.10;99.90;;;;;;5070791;28;20116;-70
2023/01/14 09:26:47;;;;;;;15.23;3.83;;;6.10;99.90;;;;;;5069618;28;20043;-66
2023/01/14 09:29:13;;;;;;;15.80;2.90;;;6.20;99.90;;;;;;5070766;28;20036;-67
2023/01/14 09:31:39;;;;;;;13.18;2.53;;;6.20;99.90;;;;;;5067773;28;20036;-64
2023/01/14 09:34:04;;;;;;;14.48;2.75;;;6.20;99.90;;;;;;5054071;28;20056;-67
2023/01/14 09:36:30;;;;;;;15.35;3.08;;;6.20;99.90;;;;;;5069577;28;20036;-67
2023/01/14 09:38:56;;;;;;;12.27;2.10;;;6.20;99.90;;;;;;5070025;28;20047;-65
2023/01/14 09:41:35;;;;;;;11.60;2.40;;;6.20;99.90;;;;;;5070606;28;20372;-67
2023/01/14 09:44:04;;;;;;;15.18;2.55;;;6.30;99.90;;;;;;5064529;28;20113;-66
2023/01/14 09:46:31;;;;;;;7.82;2.08;;;6.30;99.90;;;;;;5069890;28;20043;-65
2023/01/14 09:49:01;;;;;;;10.85;2.22;;;6.30;99.90;;;;;;5052109;28;20081;-65
2023/01/14 09:51:35;;;;;;;6.82;2.20;;;6.30;99.90;;;;;;5069977;28;20411;-66
2023/01/14 09:54:29;;;;;;;11.15;2.60;;;6.30;99.90;;;;;;5068352;28;20040;-67
2023/01/14 09:57:22;;;;;;;6.63;2.38;;;6.40;99.90;;;;;;5067883;28;20402;-65
2023/01/14 10:00:15;;;;;;;9.98;2.10;;;6.40;99.90;;;;;;5069007;28;20145;-67
2023/01/14 10:02:48;;;;;;;10.25;2.03;;;6.40;99.90;;;;;;5069951;28;20040;-68
2023/01/14 10:05:32;;;;;;;7.57;1.88;;;6.50;99.90;;;;;;5060616;28;21377;-66
2023/01/14 10:08:02;;;;;;;11.23;1.85;;;6.50;99.90;;;;;;5061676;28;20048;-67
2023/01/14 10:10:36;;;;;;;9.65;1.80;;;6.50;99.90;;;;;;5050510;28;20040;-64
2023/01/14 10:13:10;;;;;;;9.02;2.08;;;6.50;99.90;;;;;;5069134;28;20045;-67
2023/01/14 10:15:42;;;;;;;6.45;1.80;;;6.50;99.90;;;;;;5068990;28;20055;-66
2023/01/14 10:18:11;;;;;;;7.45;1.88;;;6.60;99.90;;;;;;5067390;28;20052;-66
2023/01/14 10:21:09;;;;;;;10.90;1.70;;;6.60;99.90;;;;;;5069638;28;20080;-65
2023/01/14 10:23:39;;;;;;;10.50;1.80;;;6.60;99.90;;;;;;5011853;28;20056;-66
2023/01/14 10:26:13;;;;;;;11.00;1.88;;;6.70;99.90;;;;;;5012275;28;20046;-67
2023/01/14 10:28:39;;;;;;;5.97;1.70;;;6.70;99.90;;;;;;5011511;28;20049;-68
2023/01/14 10:31:06;;;;;;;8.27;1.70;;;6.70;99.90;;;;;;5003450;28;20038;-66
2023/01/14 10:33:32;;;;;;;8.00;1.80;;;6.70;99.90;;;;;;5012078;28;20112;-67
2023/01/14 10:36:02;;;;;;;6.13;1.88;;;6.70;99.90;;;;;;5010244;28;20124;-68
2023/01/14 10:38:29;;;;;;;6.85;1.50;;;6.80;99.90;;;;;;5011168;28;20385;-67
2023/01/14 10:41:13;;;;;;;7.55;1.70;;;6.80;99.90;;;;;;5011563;28;20049;-68
2023/01/14 10:43:42;;;;;;;7.63;2.08;;;6.80;99.90;;;;;;5006363;28;20048;-66
2023/01/14 10:46:17;;;;;;;9.45;1.95;;;6.80;99.90;;;;;;5011073;28;20049;-64
2023/01/14 10:49:11;;;;;;;4.15;1.85;;;6.80;99.90;;;;;;5011039;28;20167;-65
2023/01/14 10:51:47;;;;;;;6.03;1.25;;;6.90;99.90;;;;;;5005424;28;20039;-66
2023/01/14 10:54:15;;;;;;;6.43;2.00;;;6.90;99.90;;;;;;4995057;28;20103;-64
2023/01/14 10:56:49;;;;;;;4.75;1.55;;;6.90;99.90;;;;;;5012382;28;20047;-67
2023/01/14 10:59:52;;;;;;;5.78;1.60;;;6.90;99.90;;;;;;5027989;28;20088;-66
2023/01/14 11:02:37;;;;;;;6.47;1.88;;;7.00;99.90;;;;;;5067700;28;20384;-65
2023/01/14 11:05:25;;;;;;;5.47;1.98;;;7.00;99.90;;;;;;5069006;28;20053;-67
2023/01/14 11:07:53;;;;;;;7.05;1.73;;;7.00;99.90;;;;;;5069312;28;20048;-64
2023/01/14 11:10:22;;;;;;;7.43;1.80;;;7.00;99.90;;;;;;5068581;28;20033;-65
2023/01/14 11:12:48;;;;;;;6.53;1.70;;;7.00;99.90;;;;;;5069412;28;20449;-66
2023/01/14 11:15:36;;;;;;;4.53;1.60;;;7.00;99.90;;;;;;5069110;28;20345;-65
2023/01/14 11:18:30;;;;;;;5.35;1.50;;;7.10;99.90;;;;;;5069517;28;20045;-64
2023/01/14 11:21:07;;;;;;;5.78;1.67;;;7.10;99.90;;;;;;5068954;28;20044;-64
2023/01/14 11:23:38;;;;;;;8.85;1.88;;;7.10;99.90;;;;;;5067922;28;20037;-65
2023/01/14 11:26:07;;;;;;;3.53;1.42;;;7.10;99.90;;;;;;5052750;28;20056;-68
2023/01/14 11:28:37;;;;;;;5.80;1.60;;;7.10;99.90;;;;;;5052860;28;20116;-63
2023/01/14 11:31:04;;;;;;;4.43;1.20;;;7.20;99.90;;;;;;5068287;28;20046;-65
2023/01/14 11:33:32;;;;;;;4.55;1.63;;;7.20;99.90;;;;;;5068217;28;20040;-66
2023/01/14 11:35:58;;;;;;;3.65;1.45;;;7.20;99.90;;;;;;5068248;28;20071;-65
2023/01/14 11:38:26;;;;;;;5.72;1.67;;;7.20;99.90;;;;;;5068834;28;20432;-67
2023/01/14 11:43:52;;;;;;;5.20;1.60;;;7.20;99.90;;;;;;5068971;28;20054;-64
2023/01/14 11:46:18;;;;;;;4.40;1.30;;;7.30;99.90;;;;;;5065107;28;20407;-65
2023/01/14 11:49:01;;;;;;;4.20;1.15;;;7.30;99.90;;;;;;5067230;28;20120;-67
2023/01/14 11:51:29;;;;;;;3.72;1.10;;;7.30;99.90;;;;;;5068313;28;20033;-64
2023/01/14 11:53:56;;;;;;;5.90;1.50;;;7.30;99.90;;;;;;5066441;28;20098;-63
2023/01/14 11:56:38;;;;;;;3.47;1.23;;;7.30;99.90;;;;;;5068453;28;20048;-64
2023/01/14 11:59:32;;;;;;;3.17;1.15;;;7.30;99.90;;;;;;5068143;28;20076;-67
2023/01/14 12:02:11;;;;;;;3.97;1.08;;;7.30;99.90;;;;;;5068406;28;20052;-68
2023/01/14 12:04:55;;;;;;;5.25;1.65;;;7.40;99.90;;;;;;5067712;28;20140;-66
2023/01/14 12:07:35;;;;;;;4.25;1.30;;;7.40;99.90;;;;;;5068054;28;20042;-66
2023/01/14 12:10:04;;;;;;;2.55;0.95;;;7.40;99.90;;;;;;5068307;28;20145;-65
2023/01/14 12:18:18;;;;;;;2.72;1.00;;;7.50;99.90;;;;;;5068095;28;20051;-68
2023/01/14 12:20:45;;;;;;;3.95;1.33;;;7.50;99.90;;;;;;5067825;28;20041;-67
2023/01/14 12:23:19;;;;;;;3.20;1.10;;;7.60;99.90;;;;;;5068425;28;20047;-66
2023/01/14 12:25:48;;;;;;;5.03;1.30;;;7.60;99.90;;;;;;5066495;28;20584;-66
2023/01/14 12:28:30;;;;;;;5.15;1.23;;;7.70;99.90;;;;;;5067566;28;20044;-63
2023/01/14 12:31:05;;;;;;;4.15;1.20;;;7.70;99.90;;;;;;5064819;28;20040;-68
2023/01/14 12:33:46;;;;;;;3.95;1.05;;;7.80;99.90;;;;;;5067828;28;20044;-62
2023/01/14 12:36:19;;;;;;;3.53;0.90;;;7.80;99.90;;;;;;5067341;28;20037;-66
2023/01/14 12:47:22;;;;;;;2.75;1.30;;;8.10;99.90;;;;;;5071460;28;20115;-66
2023/01/14 12:49:48;;;;;;;3.58;1.20;;;8.10;99.90;;;;;;5071185;28;20082;-65
2023/01/14 12:52:25;;;;;;;2.30;0.93;;;8.20;99.90;;;;;;5069915;28;20032;-64
2023/01/14 12:54:52;;;;;;;2.75;1.13;;;8.20;99.90;;;;;;5064727;28;20522;-64
2023/01/14 12:57:21;;;;;;;4.20;1.50;;;8.20;99.90;;;;;;5069358;28;20496;-67
2023/01/14 12:59:54;;;;;;;3.78;0.90;;;8.30;99.90;;;;;;5071152;28;20487;-65
2023/01/14 13:02:41;;;;;;;1.42;0.73;;;8.30;99.90;;;;;;5071018;28;20487;-64
2023/01/14 13:05:10;;;;;;;2.38;0.90;;;8.30;99.90;;;;;;5072155;28;20062;-64
2023/01/14 13:08:13;;;;;;;0.70;0.60;;;8.30;99.90;;;;;;5069629;28;20055;-63
2023/01/14 13:10:42;;;;;;;1.42;0.70;;;8.40;99.90;;;;;;5033133;28;20040;-64
2023/01/14 13:13:21;;;;;;;2.20;1.00;;;8.40;99.90;;;;;;5032047;28;20109;-67
2023/01/14 13:15:47;;;;;;;3.30;1.08;;;8.50;99.90;;;;;;5032152;28;20049;-64
2023/01/14 13:18:34;;;;;;;1.90;0.73;;;8.50;99.90;;;;;;5033034;28;20548;-64
2023/01/14 13:21:01;;;;;;;2.05;0.75;;;8.50;99.90;;;;;;5032578;28;20075;-66
2023/01/14 13:23:35;;;;;;;2.10;0.60;;;8.50;99.90;;;;;;5032779;28;20044;-66
2023/01/14 13:26:01;;;;;;;3.20;0.90;;;8.50;99.90;;;;;;5032530;28;20116;-66
2023/01/14 13:28:27;;;;;;;3.33;0.90;;;8.60;99.90;;;;;;5049672;28;20132;-64
2023/01/14 13:30:55;;;;;;;1.20;0.75;;;8.60;99.90;;;;;;5029130;28;20048;-63
2023/01/14 13:33:24;;;;;;;1.23;0.70;;;8.70;99.90;;;;;;5033168;28;20484;-65
2023/01/14 13:36:09;;;;;;;2.30;0.80;;;8.70;99.90;;;;;;5032724;28;20522;-65
2023/01/14 13:38:48;;;;;;;1.05;0.80;;;8.70;99.90;;;;;;5033017;28;20561;-67
2023/01/14 13:41:46;;;;;;;2.42;0.90;;;8.70;99.90;;;;;;5032482;28;20135;-65
2023/01/14 13:44:37;;;;;;;1.92;0.80;;;8.80;99.90;;;;;;5041971;28;20048;-64
2023/01/14 13:47:05;;;;;;;2.53;0.80;;;8.80;99.90;;;;;;5031942;28;20132;-66
2023/01/14 13:49:41;;;;;;;1.52;0.70;;;8.80;99.90;;;;;;5030519;28;20107;-64
2023/01/14 13:52:25;;;;;;;1.05;0.60;;;8.90;99.90;;;;;;5045950;28;20053;-64
2023/01/14 13:54:56;;;;;;;2.13;1.33;;;8.90;99.90;;;;;;5032128;28;20119;-64
2023/01/14 13:57:37;;;;;;;1.85;0.70;;;9.00;99.90;;;;;;5015921;28;20534;-65